Time;durP1;ratioP1;P1;durP2;ratioP2;P2;SDS_P1;SDS_P2;PMS_P1;PMS_P2;Temp;Humidity;BMP_temperature;BMP_pressure;BME280_temperature;BME280_humidity;BME280_pressure;Samples;Min_cycle;Max_cycle;Signal;HPM_P1;HPM_P2
2022/02/04 00:24:44;;;;;;;6.90;6.33;;;8.20;44.30;;;;;;10379562;28;20320;-70
2022/02/04 00:29:54;;;;;;;6.20;5.67;;;8.20;44.50;;;;;;10375808;28;20230;-69
2022/02/04 00:35:08;;;;;;;6.20;5.70;;;8.10;44.40;;;;;;10372288;28;20221;-69
2022/02/04 00:40:18;;;;;;;5.90;5.40;;;8.10;44.50;;;;;;10335080;28;20305;-69
2022/02/04 00:45:26;;;;;;;6.07;5.47;;;8.00;44.60;;;;;;10334924;28;20227;-70
2022/02/04 00:50:57;;;;;;;5.30;4.80;;;8.00;44.60;;;;;;10337587;28;20219;-69
2022/02/04 00:56:11;;;;;;;5.87;5.37;;;8.00;44.40;;;;;;10338261;28;20238;-71
2022/02/04 01:28:00;;;;;;;5.20;4.60;;;8.00;44.40;;;;;;10337355;28;20226;-71
2022/02/04 01:33:04;;;;;;;5.67;5.17;;;8.00;44.50;;;;;;10340460;28;20238;-71
2022/02/04 01:38:08;;;;;;;5.37;4.97;;;8.00;44.20;;;;;;10380651;28;20230;-71
2022/02/04 01:43:13;;;;;;;7.27;5.50;;;8.00;44.30;;;;;;10380828;28;20239;-71
2022/02/04 01:48:16;;;;;;;5.63;5.13;;;8.00;44.30;;;;;;10381327;28;20603;-71
2022/02/04 01:53:27;;;;;;;5.67;5.17;;;8.00;44.10;;;;;;10380936;28;20235;-70
2022/02/04 01:58:32;;;;;;;6.23;5.73;;;7.90;44.20;;;;;;10378620;28;20226;-70
2022/02/04 02:03:35;;;;;;;6.90;6.30;;;7.80;44.30;;;;;;10381705;28;20234;-70
2022/02/04 02:08:41;;;;;;;6.57;6.00;;;7.80;44.50;;;;;;10379897;28;20232;-70
2022/02/04 02:13:50;;;;;;;6.67;6.07;;;7.80;44.70;;;;;;10377467;28;20230;-70
2022/02/04 02:51:39;;;;;;;9.07;8.27;;;7.80;45.50;;;;;;10346142;28;20581;-70
2022/02/04 03:02:13;;;;;;;9.10;8.27;;;7.80;45.80;;;;;;10301968;28;20226;-70
2022/02/04 03:07:16;;;;;;;8.93;8.03;;;7.80;45.80;;;;;;10342313;28;20230;-70
2022/02/04 03:12:21;;;;;;;8.37;7.57;;;7.70;45.90;;;;;;10335427;28;20526;-70
2022/02/04 03:17:24;;;;;;;8.33;7.53;;;7.70;46.20;;;;;;10349758;28;20226;-70
2022/02/04 03:22:27;;;;;;;8.67;7.87;;;7.80;46.00;;;;;;10373444;28;20229;-70
2022/02/04 03:27:38;;;;;;;9.30;8.27;;;7.80;46.00;;;;;;10372426;28;20246;-70
2022/02/04 03:32:47;;;;;;;9.30;8.43;;;7.90;46.30;;;;;;10377460;28;20549;-70
2022/02/04 03:37:54;;;;;;;10.57;9.57;;;7.90;46.00;;;;;;10372368;28;20641;-70
2022/02/04 03:42:59;;;;;;;10.83;9.87;;;8.00;46.70;;;;;;10375666;28;20233;-70
2022/02/04 03:48:02;;;;;;;10.57;9.60;;;8.10;46.60;;;;;;10373018;28;20702;-69
2022/02/04 03:53:11;;;;;;;10.60;9.60;;;8.10;46.50;;;;;;10380885;28;20614;-70
2022/02/04 03:58:16;;;;;;;10.27;9.27;;;8.20;47.20;;;;;;10380455;28;20225;-70
2022/02/04 04:03:19;;;;;;;9.90;8.90;;;8.30;46.90;;;;;;10374998;28;20237;-70
2022/02/04 04:08:22;;;;;;;10.97;9.97;;;8.40;46.70;;;;;;10377808;28;20710;-70
2022/02/04 04:13:27;;;;;;;10.23;9.33;;;8.50;46.70;;;;;;10373392;28;20226;-70
2022/02/04 04:18:30;;;;;;;10.03;9.13;;;8.50;46.80;;;;;;10375882;28;20237;-70
2022/02/04 04:23:33;;;;;;;10.30;9.30;;;8.60;46.60;;;;;;10375880;28;20236;-70
2022/02/04 04:28:38;;;;;;;10.10;9.20;;;8.70;46.50;;;;;;10370888;28;20234;-70
2022/02/04 04:33:41;;;;;;;10.93;9.93;;;8.70;46.50;;;;;;10375605;28;20222;-70
2022/02/04 04:38:49;;;;;;;10.70;9.70;;;8.80;46.50;;;;;;10375633;28;20607;-70
2022/02/04 04:44:23;;;;;;;10.33;9.33;;;8.80;46.40;;;;;;10383100;28;20237;-70
2022/02/04 05:32:28;;;;;;;8.63;7.93;;;9.00;46.00;;;;;;10298587;28;20230;-70
2022/02/04 05:37:33;;;;;;;8.47;7.67;;;9.10;46.10;;;;;;10382410;28;20221;-70
2022/02/04 05:42:39;;;;;;;9.43;8.53;;;9.10;46.00;;;;;;10382206;28;20222;-69
2022/02/04 05:47:44;;;;;;;13.27;11.90;;;9.10;46.00;;;;;;10379149;28;20748;-70
2022/02/04 05:53:04;;;;;;;10.30;9.40;;;9.20;46.10;;;;;;10375831;28;20234;-70
2022/02/04 05:58:23;;;;;;;9.90;8.90;;;9.20;45.90;;;;;;10383929;28;20701;-70
2022/02/04 06:03:38;;;;;;;9.10;8.20;;;9.20;45.90;;;;;;10386560;28;20768;-70
2022/02/04 06:09:08;;;;;;;8.57;7.80;;;9.20;45.90;;;;;;10390716;28;20229;-73
2022/02/04 06:14:29;;;;;;;8.23;7.53;;;9.20;45.80;;;;;;10382507;28;20229;-70
2022/02/04 06:24:55;;;;;;;7.93;7.10;;;9.20;46.00;;;;;;10379143;28;20800;-70
2022/02/04 06:29:59;;;;;;;7.67;6.97;;;9.20;45.90;;;;;;10381177;28;20237;-70
2022/02/04 06:35:07;;;;;;;7.53;6.83;;;9.20;46.10;;;;;;10378906;28;20221;-70
2022/02/04 06:40:11;;;;;;;7.27;6.67;;;9.10;46.10;;;;;;10379777;28;20234;-70
2022/02/04 06:45:14;;;;;;;7.70;6.77;;;9.20;46.20;;;;;;10376207;28;20222;-70
2022/02/04 06:50:18;;;;;;;6.57;6.07;;;9.20;45.90;;;;;;10377276;28;20244;-70
2022/02/04 06:55:22;;;;;;;6.77;6.17;;;9.20;46.10;;;;;;10381625;28;20706;-69
2022/02/04 07:00:27;;;;;;;7.57;6.87;;;9.30;46.00;;;;;;10386124;28;20271;-70
2022/02/04 07:05:40;;;;;;;6.77;6.13;;;9.30;46.60;;;;;;10374963;28;20240;-70
2022/02/04 07:10:56;;;;;;;6.90;6.30;;;9.30;45.90;;;;;;10380548;28;20313;-70
2022/02/04 07:16:20;;;;;;;6.27;5.77;;;9.20;45.70;;;;;;10384489;28;20229;-70
2022/02/04 07:21:23;;;;;;;6.23;5.60;;;9.40;45.90;;;;;;10378239;28;20233;-70
2022/02/04 07:26:30;;;;;;;7.13;6.43;;;9.40;45.80;;;;;;10382147;28;20236;-70
2022/02/04 07:31:37;;;;;;;6.83;6.23;;;9.40;45.80;;;;;;10379348;28;20272;-71
2022/02/04 07:42:02;;;;;;;8.03;7.33;;;9.50;45.90;;;;;;10375881;28;20229;-71
2022/02/04 07:47:06;;;;;;;7.00;6.40;;;9.50;45.80;;;;;;10378244;28;20248;-71
2022/02/04 07:52:11;;;;;;;8.03;6.70;;;9.50;45.70;;;;;;10375101;28;20233;-71
2022/02/04 07:57:14;;;;;;;7.77;7.07;;;9.50;45.90;;;;;;10376043;28;20627;-71
2022/02/04 08:02:17;;;;;;;7.47;6.87;;;9.40;45.80;;;;;;10377476;28;20597;-71
2022/02/04 08:07:22;;;;;;;7.03;6.43;;;9.40;46.00;;;;;;10374346;28;20607;-71
2022/02/04 08:12:43;;;;;;;7.73;7.13;;;9.50;46.10;;;;;;10371770;28;20690;-71
2022/02/04 08:18:10;;;;;;;8.47;7.67;;;9.40;45.90;;;;;;10379188;28;20248;-71
2022/02/04 08:23:37;;;;;;;8.90;8.10;;;9.40;46.00;;;;;;10379193;28;20251;-71
2022/02/04 08:55:45;;;;;;;8.07;7.27;;;9.30;45.40;;;;;;10380747;28;20232;-67
2022/02/04 09:00:57;;;;;;;7.60;6.90;;;9.30;45.20;;;;;;10380778;28;20230;-67
2022/02/04 09:06:08;;;;;;;7.60;7.00;;;9.30;45.20;;;;;;10377375;28;20726;-67
2022/02/04 09:11:16;;;;;;;7.53;6.83;;;9.30;45.30;;;;;;10375845;28;20226;-67
2022/02/04 09:22:07;;;;;;;7.47;6.77;;;9.40;45.10;;;;;;10379141;28;20225;-70
2022/02/04 09:27:11;;;;;;;8.00;7.30;;;9.40;45.10;;;;;;10379607;28;20249;-70
2022/02/04 09:32:14;;;;;;;11.87;10.63;;;9.40;44.90;;;;;;10383680;28;20241;-70
2022/02/04 09:37:17;;;;;;;8.97;8.07;;;9.50;45.10;;;;;;10383164;28;20244;-67
2022/02/04 09:42:22;;;;;;;8.33;7.57;;;9.50;45.10;;;;;;10380339;28;20238;-67
2022/02/04 09:47:33;;;;;;;8.80;7.90;;;9.60;45.10;;;;;;10386367;28;20240;-68
2022/02/04 10:14:23;;;;;;;9.93;8.97;;;9.80;44.60;;;;;;10374410;28;20720;-72
2022/02/04 10:19:30;;;;;;;8.40;7.63;;;9.80;44.60;;;;;;10372872;28;20230;-74
2022/02/04 10:24:35;;;;;;;7.83;7.13;;;9.80;44.80;;;;;;10375052;28;20237;-72
2022/02/04 10:29:41;;;;;;;9.47;8.50;;;9.90;44.50;;;;;;10370360;28;20706;-70
2022/02/04 10:35:01;;;;;;;9.93;8.93;;;9.90;44.20;;;;;;10369661;28;20226;-70
2022/02/04 10:40:24;;;;;;;10.13;9.13;;;10.00;43.10;;;;;;10373515;28;20225;-70
2022/02/04 10:45:46;;;;;;;8.50;7.70;;;10.00;43.10;;;;;;10367109;28;20233;-70
2022/02/04 10:51:27;;;;;;;7.23;6.63;;;10.00;42.90;;;;;;10369125;28;20249;-70
2022/02/04 11:08:00;;;;;;;7.73;6.93;;;10.20;43.20;;;;;;10341985;28;20688;-72
2022/02/04 11:34:42;;;;;;;6.67;6.17;;;10.70;43.10;;;;;;10367965;28;20222;-68
2022/02/04 11:51:39;;;;;;;6.53;6.03;;;10.90;41.40;;;;;;10357576;28;20240;-68
2022/02/04 11:57:18;;;;;;;6.13;5.53;;;11.00;41.80;;;;;;10373086;28;20745;-68
2022/02/04 12:02:38;;;;;;;5.60;5.10;;;10.90;41.60;;;;;;10369160;28;20682;-72
2022/02/04 12:07:47;;;;;;;5.30;4.90;;;11.00;42.00;;;;;;10366246;28;20252;-70
2022/02/04 12:13:07;;;;;;;7.13;5.37;;;11.00;42.40;;;;;;10369316;28;20225;-71
2022/02/04 12:19:08;;;;;;;8.00;7.20;;;11.00;41.70;;;;;;10360722;28;20225;-68
2022/02/04 12:24:38;;;;;;;7.47;6.33;;;11.10;41.90;;;;;;10356821;28;21279;-68
2022/02/04 12:29:41;;;;;;;12.40;8.50;;;11.10;40.90;;;;;;10351914;28;20232;-69
2022/02/04 12:34:48;;;;;;;7.00;6.30;;;11.10;42.20;;;;;;10356920;28;20229;-69
2022/02/04 12:39:52;;;;;;;5.33;4.87;;;11.20;41.70;;;;;;10355308;28;20230;-68
2022/02/04 12:44:58;;;;;;;5.20;4.80;;;11.20;41.70;;;;;;10350717;28;20546;-68
2022/02/04 12:50:07;;;;;;;4.57;4.27;;;11.20;41.80;;;;;;10352891;28;20259;-68
2022/02/04 12:55:21;;;;;;;5.67;5.17;;;11.20;41.90;;;;;;10356208;28;20218;-70
2022/02/04 13:01:56;;;;;;;5.20;4.80;;;11.20;41.00;;;;;;10355310;28;20443;-71
2022/02/04 13:11:15;;;;;;;4.17;3.77;;;11.30;41.70;;;;;;10360516;28;20769;-72
2022/02/04 13:16:22;;;;;;;4.60;4.20;;;11.30;41.10;;;;;;10361757;28;20225;-72
2022/02/04 13:21:26;;;;;;;4.70;4.30;;;11.40;41.20;;;;;;10357572;28;20784;-68
2022/02/04 13:26:31;;;;;;;4.60;4.20;;;11.40;41.50;;;;;;10359728;28;20734;-73
2022/02/04 13:31:36;;;;;;;7.77;6.97;;;11.40;41.20;;;;;;10369550;28;20233;-70
2022/02/04 13:36:43;;;;;;;6.53;5.93;;;11.40;41.20;;;;;;10370247;28;20225;-70
2022/02/04 13:42:05;;;;;;;5.40;4.90;;;11.40;41.20;;;;;;10369597;28;20234;-70
2022/02/04 13:47:20;;;;;;;4.93;4.53;;;11.40;41.20;;;;;;10368993;28;20713;-70
2022/02/04 13:52:43;;;;;;;4.30;3.90;;;11.40;41.20;;;;;;10372238;28;20234;-70
2022/02/04 13:58:13;;;;;;;4.00;3.70;;;11.40;41.20;;;;;;10373947;28;20261;-70
2022/02/04 14:03:19;;;;;;;4.30;4.00;;;11.40;40.90;;;;;;10375625;28;20475;-70
2022/02/04 14:08:30;;;;;;;4.83;4.43;;;11.40;41.20;;;;;;10378855;28;20237;-70
2022/02/04 14:13:35;;;;;;;4.17;3.53;;;11.40;41.20;;;;;;10380830;28;20257;-71
2022/02/04 14:18:38;;;;;;;3.40;3.10;;;11.40;41.20;;;;;;10384631;28;20417;-70
2022/02/04 14:23:44;;;;;;;2.80;2.60;;;11.40;41.20;;;;;;10381495;28;20230;-70
2022/02/04 14:28:53;;;;;;;3.10;2.90;;;11.40;41.20;;;;;;10380655;28;20241;-70
2022/02/04 15:01:01;;;;;;;3.10;2.50;;;11.30;40.80;;;;;;10376532;28;20222;-70
2022/02/04 15:06:10;;;;;;;6.33;2.60;;;11.30;40.50;;;;;;10376932;28;20625;-70
2022/02/04 15:11:35;;;;;;;3.30;2.90;;;11.20;41.00;;;;;;10380378;28;20251;-69
2022/02/04 15:16:42;;;;;;;4.43;3.80;;;11.20;41.00;;;;;;10380953;28;20587;-69
2022/02/04 15:21:48;;;;;;;3.83;3.43;;;11.10;40.70;;;;;;10382635;28;20587;-69
2022/02/04 15:26:51;;;;;;;3.57;3.13;;;11.10;40.90;;;;;;10382183;28;20222;-72
2022/02/04 15:31:58;;;;;;;3.40;3.10;;;11.10;40.90;;;;;;10371749;28;20227;-73
2022/02/04 15:37:01;;;;;;;3.77;3.47;;;11.20;40.80;;;;;;10374194;28;20629;-72
2022/02/04 15:42:09;;;;;;;3.43;3.13;;;11.20;41.00;;;;;;10375127;28;20232;-72
2022/02/04 15:47:31;;;;;;;6.60;6.00;;;11.20;40.90;;;;;;10381719;28;20225;-74
2022/02/04 15:52:46;;;;;;;7.77;6.97;;;11.10;40.50;;;;;;10374166;28;20226;-74
2022/02/04 15:57:58;;;;;;;9.43;7.50;;;11.10;40.90;;;;;;10374955;28;20218;-73
2022/02/04 16:03:30;;;;;;;5.90;5.40;;;11.00;40.80;;;;;;10375997;28;20230;-71
2022/02/04 16:08:34;;;;;;;6.90;6.27;;;11.00;40.80;;;;;;10377487;28;20214;-71
2022/02/04 16:13:46;;;;;;;6.53;4.70;;;10.90;40.70;;;;;;10380211;28;20217;-71
2022/02/04 16:29:31;;;;;;;4.60;4.13;;;10.80;40.60;;;;;;10372132;28;20237;-71
2022/02/04 16:34:35;;;;;;;4.20;3.90;;;10.80;40.70;;;;;;10377797;28;20218;-71
2022/02/04 16:39:38;;;;;;;5.10;4.47;;;10.80;40.60;;;;;;10382591;28;20230;-71
2022/02/04 16:44:42;;;;;;;4.27;3.47;;;10.80;40.60;;;;;;10379497;28;20236;-71
2022/02/04 16:49:51;;;;;;;4.60;4.10;;;10.80;40.60;;;;;;10374996;28;20237;-71
2022/02/04 16:54:55;;;;;;;3.93;3.63;;;10.80;40.60;;;;;;10376246;28;20348;-71
2022/02/04 17:00:02;;;;;;;4.17;3.77;;;10.80;40.60;;;;;;10379374;28;20234;-71
2022/02/04 17:05:07;;;;;;;4.00;3.70;;;10.80;40.60;;;;;;10379260;28;20225;-71
2022/02/04 17:10:12;;;;;;;4.53;4.13;;;10.70;40.50;;;;;;10380053;28;20226;-70
2022/02/04 17:15:16;;;;;;;6.13;5.63;;;10.70;40.60;;;;;;10381079;28;20228;-71
2022/02/04 17:20:21;;;;;;;6.07;5.50;;;10.70;40.50;;;;;;10378739;28;20721;-71
2022/02/04 17:25:27;;;;;;;4.53;4.13;;;10.70;40.50;;;;;;10382068;28;20252;-71
2022/02/04 17:30:30;;;;;;;7.77;5.60;;;10.70;40.50;;;;;;10379691;28;20309;-71
2022/02/04 17:35:35;;;;;;;4.47;3.80;;;10.60;40.50;;;;;;10379405;28;20592;-71
2022/02/04 17:40:38;;;;;;;3.50;3.17;;;10.60;40.50;;;;;;10379933;28;21035;-71
2022/02/04 17:45:41;;;;;;;7.10;5.27;;;10.60;40.50;;;;;;10382717;28;20217;-71
2022/02/04 17:50:52;;;;;;;3.43;3.13;;;10.50;40.40;;;;;;10384310;28;20225;-71
2022/02/04 17:56:00;;;;;;;3.90;3.57;;;10.50;40.40;;;;;;10381061;28;20296;-71
2022/02/04 18:01:21;;;;;;;3.50;3.20;;;10.50;40.40;;;;;;10379668;28;20233;-71
2022/02/04 18:06:53;;;;;;;3.60;3.30;;;10.50;40.40;;;;;;10373739;28;20241;-71
2022/02/04 18:11:51;;;;;;;3.17;2.87;;;10.50;40.40;;;;;;10377606;28;20736;-71
2022/02/04 18:16:54;;;;;;;3.33;3.03;;;10.50;40.40;;;;;;10377956;28;20218;-71
2022/02/04 18:21:58;;;;;;;3.70;3.40;;;10.50;40.40;;;;;;10381268;28;20230;-71
2022/02/04 18:27:02;;;;;;;3.60;2.83;;;10.50;40.40;;;;;;10374403;28;20222;-71
2022/02/04 18:32:06;;;;;;;3.00;2.80;;;10.50;40.40;;;;;;10374898;28;20233;-71
2022/02/04 18:37:10;;;;;;;2.30;2.10;;;10.50;40.30;;;;;;10372203;28;20229;-71
2022/02/04 18:47:54;;;;;;;2.60;2.30;;;10.50;40.40;;;;;;10354953;28;20233;-71
2022/02/04 18:53:13;;;;;;;2.77;2.57;;;10.40;40.30;;;;;;10378052;28;20231;-71
2022/02/04 18:58:19;;;;;;;2.83;2.63;;;10.30;40.20;;;;;;10379503;28;20221;-71
2022/02/04 19:03:26;;;;;;;3.30;3.00;;;10.30;40.20;;;;;;10373178;28;20234;-71
2022/02/04 19:08:37;;;;;;;3.00;2.80;;;10.20;40.10;;;;;;10379685;28;20222;-72
2022/02/04 19:13:44;;;;;;;2.60;2.40;;;10.10;40.00;;;;;;10386569;28;20244;-71
2022/02/04 19:18:59;;;;;;;3.17;2.37;;;10.10;40.00;;;;;;10373703;28;20233;-71
2022/02/04 19:24:05;;;;;;;2.63;2.43;;;10.00;40.10;;;;;;10369390;28;20698;-71
2022/02/04 19:29:08;;;;;;;2.57;2.37;;;9.90;40.80;;;;;;10366382;28;20233;-71
2022/02/04 19:34:12;;;;;;;2.43;2.23;;;9.90;41.30;;;;;;10371942;28;20232;-71
2022/02/04 19:39:17;;;;;;;2.60;2.20;;;9.80;41.20;;;;;;10374536;28;20604;-72
2022/02/04 19:44:21;;;;;;;2.97;2.30;;;9.80;41.10;;;;;;10363857;28;20218;-72
2022/02/04 19:49:26;;;;;;;2.50;2.30;;;9.80;41.50;;;;;;10369475;28;20702;-72
2022/02/04 19:54:48;;;;;;;2.53;2.33;;;9.80;41.40;;;;;;10366668;28;20225;-72
2022/02/04 20:26:43;;;;;;;1.30;1.20;;;9.90;41.00;;;;;;10321641;28;20681;-73
2022/02/04 20:31:46;;;;;;;1.27;1.17;;;9.90;40.80;;;;;;10369247;28;20234;-73
2022/02/04 20:36:50;;;;;;;1.50;1.40;;;10.00;40.00;;;;;;10366895;28;20572;-73
2022/02/04 20:41:54;;;;;;;1.10;1.10;;;10.00;39.90;;;;;;10361689;28;20280;-73
2022/02/04 20:46:57;;;;;;;1.30;1.20;;;10.00;39.90;;;;;;10363899;28;20225;-73
2022/02/04 20:52:01;;;;;;;1.27;1.17;;;10.00;39.90;;;;;;10365443;28;20226;-73
2022/02/04 20:57:06;;;;;;;0.90;0.90;;;10.00;39.90;;;;;;10367398;28;20228;-73
2022/02/04 21:02:09;;;;;;;1.30;1.20;;;10.00;39.90;;;;;;10367528;28;20236;-73
2022/02/04 21:07:21;;;;;;;1.00;1.00;;;9.90;40.80;;;;;;10357495;28;20236;-73
2022/02/04 21:17:47;;;;;;;0.90;0.90;;;10.00;39.90;;;;;;10360553;28;20245;-73
2022/02/04 21:22:51;;;;;;;0.90;0.83;;;10.00;39.90;;;;;;10364963;28;20234;-73
2022/02/04 21:27:56;;;;;;;0.80;0.80;;;10.00;39.90;;;;;;10366979;28;20226;-74
2022/02/04 21:33:01;;;;;;;1.30;1.10;;;10.10;40.00;;;;;;10370121;28;20235;-73
2022/02/04 21:38:05;;;;;;;0.70;0.70;;;10.10;40.00;;;;;;10369551;28;20214;-73
2022/02/04 21:43:09;;;;;;;0.83;0.83;;;10.10;40.00;;;;;;10372003;28;20236;-73
2022/02/04 21:48:14;;;;;;;0.70;0.70;;;10.10;40.00;;;;;;10374486;28;20705;-73
2022/02/04 21:53:17;;;;;;;0.90;0.90;;;10.20;40.10;;;;;;10372563;28;20226;-72
2022/02/04 21:58:22;;;;;;;1.17;0.90;;;10.20;40.10;;;;;;10369773;28;20222;-72
2022/02/04 22:03:25;;;;;;;0.80;0.80;;;10.20;40.10;;;;;;10366163;28;20565;-72
2022/02/04 22:08:38;;;;;;;1.10;1.00;;;10.30;40.20;;;;;;10365891;28;20233;-72
2022/02/04 22:13:55;;;;;;;0.97;0.97;;;10.30;40.20;;;;;;10363136;28;20221;-72
2022/02/04 22:24:19;;;;;;;2.43;1.10;;;10.50;40.40;;;;;;10371242;28;20222;-72
2022/02/04 22:29:26;;;;;;;1.10;1.10;;;10.50;40.40;;;;;;10374362;28;20253;-72
2022/02/04 22:34:40;;;;;;;1.33;1.23;;;10.50;40.40;;;;;;10378029;28;20275;-72
2022/02/04 22:45:30;;;;;;;1.00;1.00;;;10.50;40.40;;;;;;10370028;28;20683;-72
2022/02/04 22:50:39;;;;;;;1.33;1.10;;;10.60;40.40;;;;;;10378286;28;20417;-72
2022/02/04 22:56:00;;;;;;;1.20;1.10;;;10.60;40.50;;;;;;10379450;28;20229;-72
2022/02/04 23:01:06;;;;;;;1.20;1.10;;;10.60;40.50;;;;;;10371740;28;20576;-72
2022/02/04 23:06:13;;;;;;;1.20;1.10;;;10.70;40.20;;;;;;10376064;28;20915;-72
2022/02/04 23:11:16;;;;;;;1.40;1.10;;;10.70;40.30;;;;;;10373871;28;20229;-72
2022/02/04 23:16:25;;;;;;;0.80;0.80;;;10.70;40.20;;;;;;10372425;28;20811;-72
2022/02/04 23:21:34;;;;;;;1.43;1.10;;;10.80;40.00;;;;;;10374971;28;20610;-72
2022/02/04 23:26:43;;;;;;;1.83;1.20;;;10.80;40.10;;;;;;10379832;28;20610;-72
2022/02/04 23:43:58;;;;;;;1.50;1.40;;;10.80;39.90;;;;;;10375635;28;20229;-72
2022/02/04 23:53:33;;;;;;;1.33;1.30;;;10.90;40.00;;;;;;10377128;28;20241;-72
2022/02/04 23:58:43;;;;;;;1.50;1.40;;;10.90;40.10;;;;;;10374360;28;20225;-72
